sensor_id;sensor_type;location;lat;lon;timestamp;pressure;altitude;pressure_sealevel;temperature;humidity
52653;BME280;39353;42.864;12.014;2023-06-01T00:00:36;97479.70;;;25.37;51.62
52653;BME280;39353;42.864;12.014;2023-06-01T00:03:20;97482.06;;;25.37;51.63
52653;BME280;39353;42.864;12.014;2023-06-01T00:05:47;97483.42;;;25.37;51.61
52653;BME280;39353;42.864;12.014;2023-06-01T00:08:14;97484.73;;;25.36;51.64
52653;BME280;39353;42.864;12.014;2023-06-01T00:10:56;97484.72;;;25.35;51.54
52653;BME280;39353;42.864;12.014;2023-06-01T00:13:24;97488.11;;;25.34;51.63
52653;BME280;39353;42.864;12.014;2023-06-01T00:15:51;97486.23;;;25.33;51.70
52653;BME280;39353;42.864;12.014;2023-06-01T00:18:18;97488.59;;;25.33;51.54
52653;BME280;39353;42.864;12.014;2023-06-01T00:21:00;97493.65;;;25.34;51.68
52653;BME280;39353;42.864;12.014;2023-06-01T00:23:27;97491.84;;;25.34;51.74
52653;BME280;39353;42.864;12.014;2023-06-01T00:26:09;97495.30;;;25.34;51.56
52653;BME280;39353;42.864;12.014;2023-06-01T00:28:51;97489.08;;;25.33;51.63
52653;BME280;39353;42.864;12.014;2023-06-01T00:31:33;97487.29;;;25.34;51.56
52653;BME280;39353;42.864;12.014;2023-06-01T00:34:00;97489.27;;;25.34;51.58
52653;BME280;39353;42.864;12.014;2023-06-01T00:36:27;97488.47;;;25.33;51.62
52653;BME280;39353;42.864;12.014;2023-06-01T00:39:11;97487.92;;;25.32;51.56
52653;BME280;39353;42.864;12.014;2023-06-01T00:41:40;97486.33;;;25.31;51.69
52653;BME280;39353;42.864;12.014;2023-06-01T00:44:21;97482.64;;;25.30;51.63
52653;BME280;39353;42.864;12.014;2023-06-01T00:46:49;97483.73;;;25.31;51.65
52653;BME280;39353;42.864;12.014;2023-06-01T00:49:31;97483.18;;;25.30;51.58
52653;BME280;39353;42.864;12.014;2023-06-01T00:51:58;97479.49;;;25.31;51.61
52653;BME280;39353;42.864;12.014;2023-06-01T00:54:40;97481.25;;;25.30;51.59
52653;BME280;39353;42.864;12.014;2023-06-01T00:57:22;97477.79;;;25.30;51.69
52653;BME280;39353;42.864;12.014;2023-06-01T01:00:07;97476.15;;;25.29;51.68
52653;BME280;39353;42.864;12.014;2023-06-01T01:02:37;97477.39;;;25.28;51.57
52653;BME280;39353;42.864;12.014;2023-06-01T01:05:10;97481.46;;;25.28;51.50
52653;BME280;39353;42.864;12.014;2023-06-01T01:10:38;97478.88;;;25.28;51.71
52653;BME280;39353;42.864;12.014;2023-06-01T01:13:20;97480.64;;;25.28;51.57
52653;BME280;39353;42.864;12.014;2023-06-01T01:18:42;97475.75;;;25.28;51.74
52653;BME280;39353;42.864;12.014;2023-06-01T01:21:15;97476.17;;;25.28;51.62
52653;BME280;39353;42.864;12.014;2023-06-01T01:24:28;97472.44;;;25.27;51.58
52653;BME280;39353;42.864;12.014;2023-06-01T01:27:39;97474.45;;;25.26;51.62
52653;BME280;39353;42.864;12.014;2023-06-01T01:30:12;97475.24;;;25.27;51.64
52653;BME280;39353;42.864;12.014;2023-06-01T01:32:42;97475.46;;;25.27;51.65
52653;BME280;39353;42.864;12.014;2023-06-01T01:35:29;97474.80;;;25.26;51.53
52653;BME280;39353;42.864;12.014;2023-06-01T01:37:57;97476.83;;;25.26;51.68
52653;BME280;39353;42.864;12.014;2023-06-01T01:40:24;97474.45;;;25.26;51.66
52653;BME280;39353;42.864;12.014;2023-06-01T01:43:06;97470.21;;;25.25;51.66
52653;BME280;39353;42.864;12.014;2023-06-01T01:45:33;97469.66;;;25.25;51.60
52653;BME280;39353;42.864;12.014;2023-06-01T01:48:25;97470.43;;;25.25;51.56
52653;BME280;39353;42.864;12.014;2023-06-01T01:51:22;97467.35;;;25.24;51.62
52653;BME280;39353;42.864;12.014;2023-06-01T01:53:52;97463.61;;;25.24;51.55
52653;BME280;39353;42.864;12.014;2023-06-01T01:56:26;97466.46;;;25.24;51.58
52653;BME280;39353;42.864;12.014;2023-06-01T01:58:53;97464.71;;;25.24;51.60
52653;BME280;39353;42.864;12.014;2023-06-01T02:01:22;97464.16;;;25.24;51.62
52653;BME280;39353;42.864;12.014;2023-06-01T02:04:05;97461.73;;;25.23;51.52
52653;BME280;39353;42.864;12.014;2023-06-01T02:06:48;97465.14;;;25.24;51.69
52653;BME280;39353;42.864;12.014;2023-06-01T02:09:30;97469.65;;;25.23;51.49
52653;BME280;39353;42.864;12.014;2023-06-01T02:12:12;97469.46;;;25.23;51.61
52653;BME280;39353;42.864;12.014;2023-06-01T02:14:53;97464.46;;;25.22;51.53
52653;BME280;39353;42.864;12.014;2023-06-01T02:17:20;97466.71;;;25.22;51.65
52653;BME280;39353;42.864;12.014;2023-06-01T02:20:02;97461.73;;;25.22;51.52
52653;BME280;39353;42.864;12.014;2023-06-01T02:22:44;97464.52;;;25.22;51.63
52653;BME280;39353;42.864;12.014;2023-06-01T02:25:17;97466.39;;;25.22;51.65
52653;BME280;39353;42.864;12.014;2023-06-01T02:27:46;97465.13;;;25.22;51.60
52653;BME280;39353;42.864;12.014;2023-06-01T02:30:27;97463.70;;;25.22;51.58
52653;BME280;39353;42.864;12.014;2023-06-01T02:33:08;97465.02;;;25.22;51.61
52653;BME280;39353;42.864;12.014;2023-06-01T02:35:51;97463.02;;;25.21;51.65
52653;BME280;39353;42.864;12.014;2023-06-01T02:38:32;97462.77;;;25.22;51.65
52653;BME280;39353;42.864;12.014;2023-06-01T02:41:02;97464.99;;;25.21;51.63
52653;BME280;39353;42.864;12.014;2023-06-01T02:43:29;97465.31;;;25.20;51.73
52653;BME280;39353;42.864;12.014;2023-06-01T02:46:10;97459.21;;;25.19;51.65
52653;BME280;39353;42.864;12.014;2023-06-01T02:48:53;97462.51;;;25.20;51.63
52653;BME280;39353;42.864;12.014;2023-06-01T02:51:20;97464.75;;;25.19;51.69
52653;BME280;39353;42.864;12.014;2023-06-01T02:54:04;97466.46;;;25.19;51.71
52653;BME280;39353;42.864;12.014;2023-06-01T02:56:31;97469.70;;;25.19;51.67
52653;BME280;39353;42.864;12.014;2023-06-01T02:59:30;97470.08;;;25.19;51.70
52653;BME280;39353;42.864;12.014;2023-06-01T03:02:15;97466.90;;;25.20;51.67
52653;BME280;39353;42.864;12.014;2023-06-01T03:04:56;97465.14;;;25.19;51.55
52653;BME280;39353;42.864;12.014;2023-06-01T03:07:23;97466.84;;;25.19;51.68
52653;BME280;39353;42.864;12.014;2023-06-01T03:09:53;97465.08;;;25.19;51.79
52653;BME280;39353;42.864;12.014;2023-06-01T03:12:52;97461.66;;;25.18;51.60
52653;BME280;39353;42.864;12.014;2023-06-01T03:15:33;97462.92;;;25.17;51.79
52653;BME280;39353;42.864;12.014;2023-06-01T03:18:14;97465.18;;;25.18;51.65
52653;BME280;39353;42.864;12.014;2023-06-01T03:20:56;97464.46;;;25.18;51.69
52653;BME280;39353;42.864;12.014;2023-06-01T03:23:37;97464.73;;;25.17;51.66
52653;BME280;39353;42.864;12.014;2023-06-01T03:26:24;97464.40;;;25.17;51.63
52653;BME280;39353;42.864;12.014;2023-06-01T03:28:51;97468.45;;;25.16;51.65
52653;BME280;39353;42.864;12.014;2023-06-01T03:31:18;97466.39;;;25.17;51.76
52653;BME280;39353;42.864;12.014;2023-06-01T03:34:00;97469.39;;;25.16;51.61
52653;BME280;39353;42.864;12.014;2023-06-01T03:36:41;97467.46;;;25.16;51.59
52653;BME280;39353;42.864;12.014;2023-06-01T03:39:23;97468.84;;;25.15;51.61
52653;BME280;39353;42.864;12.014;2023-06-01T03:42:04;97469.44;;;25.15;51.62
52653;BME280;39353;42.864;12.014;2023-06-01T03:44:33;97465.91;;;25.14;51.60
52653;BME280;39353;42.864;12.014;2023-06-01T03:47:13;97467.84;;;25.15;51.73
52653;BME280;39353;42.864;12.014;2023-06-01T03:49:55;97469.10;;;25.15;51.58
52653;BME280;39353;42.864;12.014;2023-06-01T03:52:29;97471.61;;;25.14;51.55
52653;BME280;39353;42.864;12.014;2023-06-01T03:54:58;97472.79;;;25.15;51.63
52653;BME280;39353;42.864;12.014;2023-06-01T03:57:46;97479.03;;;25.14;51.69
52653;BME280;39353;42.864;12.014;2023-06-01T04:00:27;97481.00;;;25.13;51.59
52653;BME280;39353;42.864;12.014;2023-06-01T04:03:10;97481.72;;;25.14;51.68
52653;BME280;39353;42.864;12.014;2023-06-01T04:05:40;97485.79;;;25.14;51.75
52653;BME280;39353;42.864;12.014;2023-06-01T04:08:21;97483.23;;;25.12;51.69
52653;BME280;39353;42.864;12.014;2023-06-01T04:11:03;97483.48;;;25.11;51.75
52653;BME280;39353;42.864;12.014;2023-06-01T04:13:30;97482.55;;;25.10;51.80
52653;BME280;39353;42.864;12.014;2023-06-01T04:16:12;97483.71;;;25.11;51.70
52653;BME280;39353;42.864;12.014;2023-06-01T04:18:54;97483.98;;;25.10;51.75
52653;BME280;39353;42.864;12.014;2023-06-01T04:21:26;97482.61;;;25.11;51.61
52653;BME280;39353;42.864;12.014;2023-06-01T04:23:53;97484.36;;;25.11;51.85
52653;BME280;39353;42.864;12.014;2023-06-01T04:26:35;97485.85;;;25.11;51.80
52653;BME280;39353;42.864;12.014;2023-06-01T04:29:08;97482.05;;;25.11;51.74
52653;BME280;39353;42.864;12.014;2023-06-01T04:31:52;97481.64;;;25.09;51.84
52653;BME280;39353;42.864;12.014;2023-06-01T04:34:38;97484.92;;;25.08;51.89
52653;BME280;39353;42.864;12.014;2023-06-01T04:37:20;97484.92;;;25.07;51.83
52653;BME280;39353;42.864;12.014;2023-06-01T04:40:02;97483.95;;;25.06;51.87
52653;BME280;39353;42.864;12.014;2023-06-01T04:42:40;97485.32;;;25.05;51.88
52653;BME280;39353;42.864;12.014;2023-06-01T04:45:09;97485.38;;;25.05;51.85
52653;BME280;39353;42.864;12.014;2023-06-01T04:47:52;97486.80;;;25.05;51.86
52653;BME280;39353;42.864;12.014;2023-06-01T04:50:53;97483.36;;;25.05;51.86
52653;BME280;39353;42.864;12.014;2023-06-01T04:53:21;97482.59;;;25.05;52.03
52653;BME280;39353;42.864;12.014;2023-06-01T04:56:03;97481.67;;;25.06;51.80
52653;BME280;39353;42.864;12.014;2023-06-01T04:58:47;97485.84;;;25.07;51.77
52653;BME280;39353;42.864;12.014;2023-06-01T05:01:29;97488.96;;;25.06;51.79
52653;BME280;39353;42.864;12.014;2023-06-01T05:04:11;97488.41;;;25.06;51.78
52653;BME280;39353;42.864;12.014;2023-06-01T05:06:39;97482.17;;;25.07;51.87
52653;BME280;39353;42.864;12.014;2023-06-01T05:09:21;97490.86;;;25.07;51.77
52653;BME280;39353;42.864;12.014;2023-06-01T05:12:03;97486.57;;;25.08;51.93
52653;BME280;39353;42.864;12.014;2023-06-01T05:14:30;97482.80;;;25.08;51.77
52653;BME280;39353;42.864;12.014;2023-06-01T05:16:58;97489.13;;;25.09;51.74
52653;BME280;39353;42.864;12.014;2023-06-01T05:19:39;97488.52;;;25.10;51.89
52653;BME280;39353;42.864;12.014;2023-06-01T05:22:08;97495.11;;;25.10;51.68
52653;BME280;39353;42.864;12.014;2023-06-01T05:24:35;97500.29;;;25.11;51.84
52653;BME280;39353;42.864;12.014;2023-06-01T05:27:04;97500.18;;;25.11;51.76
52653;BME280;39353;42.864;12.014;2023-06-01T05:29:35;97498.80;;;25.10;51.89
52653;BME280;39353;42.864;12.014;2023-06-01T05:32:17;97496.33;;;25.11;51.72
52653;BME280;39353;42.864;12.014;2023-06-01T05:34:59;97496.60;;;25.14;51.76
52653;BME280;39353;42.864;12.014;2023-06-01T05:37:45;97496.34;;;25.15;51.69
52653;BME280;39353;42.864;12.014;2023-06-01T05:40:14;97499.44;;;25.17;51.66
52653;BME280;39353;42.864;12.014;2023-06-01T05:42:40;97497.63;;;25.17;51.69
52653;BME280;39353;42.864;12.014;2023-06-01T05:45:09;97502.73;;;25.18;51.62
52653;BME280;39353;42.864;12.014;2023-06-01T05:47:36;97503.00;;;25.21;51.75
52653;BME280;39353;42.864;12.014;2023-06-01T05:50:17;97505.76;;;25.18;51.64
52653;BME280;39353;42.864;12.014;2023-06-01T05:52:59;97507.41;;;25.13;51.61
52653;BME280;39353;42.864;12.014;2023-06-01T05:55:26;97507.39;;;25.16;51.82
52653;BME280;39353;42.864;12.014;2023-06-01T05:57:54;97511.17;;;25.12;50.88
52653;BME280;39353;42.864;12.014;2023-06-01T06:00:36;97513.79;;;25.01;51.15
52653;BME280;39353;42.864;12.014;2023-06-01T06:03:17;97510.52;;;24.97;51.35
52653;BME280;39353;42.864;12.014;2023-06-01T06:06:00;97509.83;;;24.90;51.65
52653;BME280;39353;42.864;12.014;2023-06-01T06:08:28;97506.93;;;24.91;51.82
52653;BME280;39353;42.864;12.014;2023-06-01T06:11:11;97512.17;;;24.97;51.71
52653;BME280;39353;42.864;12.014;2023-06-01T06:13:52;97515.10;;;25.02;51.61
52653;BME280;39353;42.864;12.014;2023-06-01T06:16:19;97515.59;;;25.06;51.66
52653;BME280;39353;42.864;12.014;2023-06-01T06:18:46;97518.33;;;25.05;50.79
52653;BME280;39353;42.864;12.014;2023-06-01T06:21:28;97518.11;;;25.00;51.35
52653;BME280;39353;42.864;12.014;2023-06-01T06:24:10;97521.33;;;24.99;51.67
52653;BME280;39353;42.864;12.014;2023-06-01T06:26:40;97517.04;;;25.03;51.54
52653;BME280;39353;42.864;12.014;2023-06-01T06:29:23;97513.46;;;24.98;50.72
52653;BME280;39353;42.864;12.014;2023-06-01T06:31:53;97514.83;;;24.82;50.86
52653;BME280;39353;42.864;12.014;2023-06-01T06:34:20;97514.50;;;24.69;51.37
52653;BME280;39353;42.864;12.014;2023-06-01T06:37:06;97517.73;;;24.66;51.85
52653;BME280;39353;42.864;12.014;2023-06-01T06:39:37;97519.94;;;24.70;51.93
52653;BME280;39353;42.864;12.014;2023-06-01T06:42:19;97523.08;;;24.76;51.73
52653;BME280;39353;42.864;12.014;2023-06-01T06:44:47;97526.27;;;24.81;51.64
52653;BME280;39353;42.864;12.014;2023-06-01T06:47:29;97525.50;;;24.84;51.57
52653;BME280;39353;42.864;12.014;2023-06-01T06:49:58;97524.35;;;24.88;51.59
52653;BME280;39353;42.864;12.014;2023-06-01T06:52:29;97526.46;;;24.86;51.51
52653;BME280;39353;42.864;12.014;2023-06-01T06:54:57;97521.20;;;24.83;51.77
52653;BME280;39353;42.864;12.014;2023-06-01T06:57:24;97522.42;;;24.83;51.79
52653;BME280;39353;42.864;12.014;2023-06-01T06:59:51;97522.56;;;24.85;51.76
52653;BME280;39353;42.864;12.014;2023-06-01T07:02:18;97520.86;;;24.90;51.74
52653;BME280;39353;42.864;12.014;2023-06-01T07:04:46;97524.56;;;24.95;51.64
52653;BME280;39353;42.864;12.014;2023-06-01T07:07:13;97523.52;;;24.98;51.58
52653;BME280;39353;42.864;12.014;2023-06-01T07:09:40;97522.90;;;24.95;51.42
52653;BME280;39353;42.864;12.014;2023-06-01T07:12:23;97517.53;;;24.91;51.85
52653;BME280;39353;42.864;12.014;2023-06-01T07:15:04;97524.91;;;24.96;51.87
52653;BME280;39353;42.864;12.014;2023-06-01T07:17:46;97523.92;;;25.00;51.69
52653;BME280;39353;42.864;12.014;2023-06-01T07:20:13;97522.25;;;25.02;51.70
52653;BME280;39353;42.864;12.014;2023-06-01T07:22:54;97524.21;;;25.06;51.74
52653;BME280;39353;42.864;12.014;2023-06-01T07:25:22;97523.39;;;25.10;51.59
52653;BME280;39353;42.864;12.014;2023-06-01T07:27:50;97522.13;;;25.13;51.54
52653;BME280;39353;42.864;12.014;2023-06-01T07:30:31;97524.69;;;25.16;51.55
52653;BME280;39353;42.864;12.014;2023-06-01T07:32:58;97521.78;;;25.17;51.50
52653;BME280;39353;42.864;12.014;2023-06-01T07:35:39;97518.20;;;25.20;51.69
52653;BME280;39353;42.864;12.014;2023-06-01T07:38:07;97524.20;;;25.17;51.21
52653;BME280;39353;42.864;12.014;2023-06-01T07:40:34;97522.02;;;25.05;51.07
52653;BME280;39353;42.864;12.014;2023-06-01T07:43:02;97522.54;;;24.92;50.94
52653;BME280;39353;42.864;12.014;2023-06-01T07:45:43;97517.27;;;24.80;51.36
52653;BME280;39353;42.864;12.014;2023-06-01T07:48:23;97519.00;;;24.74;51.46
52653;BME280;39353;42.864;12.014;2023-06-01T07:51:05;97517.25;;;24.66;51.59
52653;BME280;39353;42.864;12.014;2023-06-01T07:53:48;97514.35;;;24.64;51.84
52653;BME280;39353;42.864;12.014;2023-06-01T07:56:28;97515.52;;;24.65;51.99
52653;BME280;39353;42.864;12.014;2023-06-01T07:59:09;97510.79;;;24.64;52.05
52653;BME280;39353;42.864;12.014;2023-06-01T08:01:51;97511.48;;;24.66;51.63
52653;BME280;39353;42.864;12.014;2023-06-01T08:04:23;97509.14;;;24.64;51.48
52653;BME280;39353;42.864;12.014;2023-06-01T08:06:50;97506.98;;;24.60;51.32
52653;BME280;39353;42.864;12.014;2023-06-01T08:09:20;97504.30;;;24.55;51.70
52653;BME280;39353;42.864;12.014;2023-06-01T08:11:49;97503.55;;;24.57;51.81
52653;BME280;39353;42.864;12.014;2023-06-01T08:14:16;97502.48;;;24.63;51.61
52653;BME280;39353;42.864;12.014;2023-06-01T08:16:45;97500.10;;;24.67;51.20
52653;BME280;39353;42.864;12.014;2023-06-01T08:19:12;97501.99;;;24.69;51.46
52653;BME280;39353;42.864;12.014;2023-06-01T08:21:39;97502.89;;;24.68;51.88
52653;BME280;39353;42.864;12.014;2023-06-01T08:24:21;97504.92;;;24.68;52.12
52653;BME280;39353;42.864;12.014;2023-06-01T08:27:21;97507.16;;;24.67;52.22
52653;BME280;39353;42.864;12.014;2023-06-01T08:29:50;97505.15;;;24.68;52.32
52653;BME280;39353;42.864;12.014;2023-06-01T08:32:30;97504.61;;;24.69;52.18
52653;BME280;39353;42.864;12.014;2023-06-01T08:35:14;97503.36;;;24.71;53.34
52653;BME280;39353;42.864;12.014;2023-06-01T08:37:44;97504.54;;;24.73;53.45
52653;BME280;39353;42.864;12.014;2023-06-01T08:40:13;97506.90;;;24.76;53.23
52653;BME280;39353;42.864;12.014;2023-06-01T08:42:58;97511.61;;;24.80;53.12
52653;BME280;39353;42.864;12.014;2023-06-01T08:45:28;97511.16;;;24.83;52.98
52653;BME280;39353;42.864;12.014;2023-06-01T08:48:15;97508.89;;;24.85;52.59
52653;BME280;39353;42.864;12.014;2023-06-01T08:50:48;97510.08;;;24.87;52.12
52653;BME280;39353;42.864;12.014;2023-06-01T08:53:32;97510.15;;;24.93;51.88
52653;BME280;39353;42.864;12.014;2023-06-01T08:56:00;97508.91;;;24.98;52.38
52653;BME280;39353;42.864;12.014;2023-06-01T08:58:43;97507.93;;;25.04;52.07
52653;BME280;39353;42.864;12.014;2023-06-01T09:01:26;97508.04;;;25.07;51.85
52653;BME280;39353;42.864;12.014;2023-06-01T09:04:08;97508.51;;;25.13;52.05
52653;BME280;39353;42.864;12.014;2023-06-01T09:06:53;97507.45;;;25.17;51.52
52653;BME280;39353;42.864;12.014;2023-06-01T09:09:21;97507.67;;;25.18;51.57
52653;BME280;39353;42.864;12.014;2023-06-01T09:11:48;97510.41;;;25.16;51.25
52653;BME280;39353;42.864;12.014;2023-06-01T09:14:28;97511.52;;;25.16;51.28
52653;BME280;39353;42.864;12.014;2023-06-01T09:16:55;97513.36;;;25.15;51.48
52653;BME280;39353;42.864;12.014;2023-06-01T09:19:23;97516.56;;;25.16;51.56
52653;BME280;39353;42.864;12.014;2023-06-01T09:22:04;97510.76;;;25.18;51.22
52653;BME280;39353;42.864;12.014;2023-06-01T09:25:05;97511.02;;;25.12;50.37
52653;BME280;39353;42.864;12.014;2023-06-01T09:27:51;97508.48;;;25.11;50.68
52653;BME280;39353;42.864;12.014;2023-06-01T09:30:41;97504.23;;;25.09;52.02
52653;BME280;39353;42.864;12.014;2023-06-01T09:33:16;97503.91;;;25.07;52.08
52653;BME280;39353;42.864;12.014;2023-06-01T09:35:57;97504.75;;;25.04;51.93
52653;BME280;39353;42.864;12.014;2023-06-01T09:38:38;97502.05;;;25.04;51.47
52653;BME280;39353;42.864;12.014;2023-06-01T09:41:11;97503.86;;;25.02;50.87
52653;BME280;39353;42.864;12.014;2023-06-01T09:43:43;97498.91;;;25.03;50.93
52653;BME280;39353;42.864;12.014;2023-06-01T09:46:28;97495.27;;;25.00;50.64
52653;BME280;39353;42.864;12.014;2023-06-01T09:49:07;97493.45;;;25.04;50.82
52653;BME280;39353;42.864;12.014;2023-06-01T09:51:51;97495.18;;;25.03;50.76
52653;BME280;39353;42.864;12.014;2023-06-01T09:54:29;97490.46;;;25.03;50.86
52653;BME280;39353;42.864;12.014;2023-06-01T09:57:08;97490.58;;;25.03;51.09
52653;BME280;39353;42.864;12.014;2023-06-01T09:59:45;97495.02;;;25.01;50.78
52653;BME280;39353;42.864;12.014;2023-06-01T10:04:53;97494.33;;;24.96;51.05
52653;BME280;39353;42.864;12.014;2023-06-01T10:07:22;97492.30;;;24.96;51.19
52653;BME280;39353;42.864;12.014;2023-06-01T10:10:05;97483.98;;;24.98;51.36
52653;BME280;39353;42.864;12.014;2023-06-01T10:12:32;97479.02;;;24.97;50.99
52653;BME280;39353;42.864;12.014;2023-06-01T10:15:18;97477.89;;;24.98;50.60
52653;BME280;39353;42.864;12.014;2023-06-01T10:18:08;97476.12;;;25.01;50.65
52653;BME280;39353;42.864;12.014;2023-06-01T10:20:51;97474.94;;;25.04;49.54
52653;BME280;39353;42.864;12.014;2023-06-01T10:23:18;97472.73;;;24.98;46.87
52653;BME280;39353;42.864;12.014;2023-06-01T10:26:08;97475.97;;;24.98;46.70
52653;BME280;39353;42.864;12.014;2023-06-01T10:28:55;97479.20;;;24.89;45.97
52653;BME280;39353;42.864;12.014;2023-06-01T10:31:41;97475.27;;;24.86;47.32
52653;BME280;39353;42.864;12.014;2023-06-01T10:34:12;97471.86;;;24.87;47.30
52653;BME280;39353;42.864;12.014;2023-06-01T10:39:32;97465.79;;;24.96;47.51
52653;BME280;39353;42.864;12.014;2023-06-01T10:44:54;97462.36;;;25.03;47.50
52653;BME280;39353;42.864;12.014;2023-06-01T10:50:07;97457.61;;;25.09;47.74
52653;BME280;39353;42.864;12.014;2023-06-01T10:52:36;97455.61;;;25.12;47.81
52653;BME280;39353;42.864;12.014;2023-06-01T10:55:22;97452.64;;;25.16;47.93
52653;BME280;39353;42.864;12.014;2023-06-01T10:58:22;97449.48;;;25.18;47.93
52653;BME280;39353;42.864;12.014;2023-06-01T11:01:06;97447.60;;;25.21;48.16
52653;BME280;39353;42.864;12.014;2023-06-01T11:03:49;97449.92;;;25.24;48.35
52653;BME280;39353;42.864;12.014;2023-06-01T11:06:36;97450.22;;;25.24;48.41
52653;BME280;39353;42.864;12.014;2023-06-01T11:09:06;97447.86;;;25.25;48.56
52653;BME280;39353;42.864;12.014;2023-06-01T11:14:37;97440.39;;;25.25;48.49
52653;BME280;39353;42.864;12.014;2023-06-01T11:17:28;97435.46;;;25.25;48.84
52653;BME280;39353;42.864;12.014;2023-06-01T11:20:00;97431.20;;;25.27;49.41
52653;BME280;39353;42.864;12.014;2023-06-01T11:22:42;97430.17;;;25.30;49.67
52653;BME280;39353;42.864;12.014;2023-06-01T11:25:10;97424.20;;;25.32;50.24
52653;BME280;39353;42.864;12.014;2023-06-01T11:27:43;97419.32;;;25.33;51.05
52653;BME280;39353;42.864;12.014;2023-06-01T11:30:24;97415.00;;;25.33;50.91
52653;BME280;39353;42.864;12.014;2023-06-01T11:32:52;97417.65;;;25.35;50.86
52653;BME280;39353;42.864;12.014;2023-06-01T11:35:20;97418.75;;;25.35;50.76
52653;BME280;39353;42.864;12.014;2023-06-01T11:38:02;97420.45;;;25.35;49.94
52653;BME280;39353;42.864;12.014;2023-06-01T11:40:29;97419.15;;;25.31;49.57
52653;BME280;39353;42.864;12.014;2023-06-01T11:43:10;97421.66;;;25.30;50.04
52653;BME280;39353;42.864;12.014;2023-06-01T11:45:38;97416.88;;;25.29;50.61
52653;BME280;39353;42.864;12.014;2023-06-01T11:48:18;97411.20;;;25.33;51.58
52653;BME280;39353;42.864;12.014;2023-06-01T11:50:47;97408.77;;;25.36;51.16
52653;BME280;39353;42.864;12.014;2023-06-01T11:53:29;97402.70;;;25.39;49.29
52653;BME280;39353;42.864;12.014;2023-06-01T11:55:59;97397.39;;;25.40;49.65
52653;BME280;39353;42.864;12.014;2023-06-01T11:58:40;97398.66;;;25.43;50.28
52653;BME280;39353;42.864;12.014;2023-06-01T12:01:07;97393.63;;;25.45;50.71
52653;BME280;39353;42.864;12.014;2023-06-01T12:03:51;97390.02;;;25.47;50.89
52653;BME280;39353;42.864;12.014;2023-06-01T12:06:24;97389.09;;;25.49;51.77
52653;BME280;39353;42.864;12.014;2023-06-01T12:09:07;97386.73;;;25.48;51.32
52653;BME280;39353;42.864;12.014;2023-06-01T12:11:37;97387.49;;;25.48;51.39
52653;BME280;39353;42.864;12.014;2023-06-01T12:14:19;97387.19;;;25.50;51.10
52653;BME280;39353;42.864;12.014;2023-06-01T12:16:55;97384.89;;;25.50;50.80
52653;BME280;39353;42.864;12.014;2023-06-01T12:19:48;97385.63;;;25.48;50.56
52653;BME280;39353;42.864;12.014;2023-06-01T12:22:30;97383.05;;;25.49;49.99
52653;BME280;39353;42.864;12.014;2023-06-01T12:25:07;97384.05;;;25.50;49.88
52653;BME280;39353;42.864;12.014;2023-06-01T12:27:42;97389.61;;;25.51;49.61
52653;BME280;39353;42.864;12.014;2023-06-01T12:30:25;97387.04;;;25.51;49.42
52653;BME280;39353;42.864;12.014;2023-06-01T12:32:53;97385.72;;;25.51;48.71
52653;BME280;39353;42.864;12.014;2023-06-01T12:35:21;97383.92;;;25.48;47.23
52653;BME280;39353;42.864;12.014;2023-06-01T12:38:10;97380.89;;;25.47;47.45
52653;BME280;39353;42.864;12.014;2023-06-01T12:40:38;97387.80;;;25.46;46.49
52653;BME280;39353;42.864;12.014;2023-06-01T12:43:18;97389.96;;;25.48;46.85
52653;BME280;39353;42.864;12.014;2023-06-01T12:45:48;97391.72;;;25.47;47.43
52653;BME280;39353;42.864;12.014;2023-06-01T12:48:30;97395.58;;;25.48;47.45
52653;BME280;39353;42.864;12.014;2023-06-01T12:51:00;97397.59;;;25.45;47.28
52653;BME280;39353;42.864;12.014;2023-06-01T12:53:28;97389.18;;;25.47;47.14
52653;BME280;39353;42.864;12.014;2023-06-01T12:55:56;97387.64;;;25.46;47.24
52653;BME280;39353;42.864;12.014;2023-06-01T12:58:23;97386.67;;;25.49;47.21
52653;BME280;39353;42.864;12.014;2023-06-01T13:00:51;97390.02;;;25.48;46.63
52653;BME280;39353;42.864;12.014;2023-06-01T13:03:20;97386.86;;;25.45;46.87
52653;BME280;39353;42.864;12.014;2023-06-01T13:05:49;97384.33;;;25.45;47.31
52653;BME280;39353;42.864;12.014;2023-06-01T13:08:19;97385.94;;;25.45;47.34
52653;BME280;39353;42.864;12.014;2023-06-01T13:10:48;97386.80;;;25.43;47.55
52653;BME280;39353;42.864;12.014;2023-06-01T13:13:18;97382.14;;;25.45;47.36
52653;BME280;39353;42.864;12.014;2023-06-01T13:15:46;97376.98;;;25.45;47.50
52653;BME280;39353;42.864;12.014;2023-06-01T13:18:15;97371.17;;;25.47;47.53
52653;BME280;39353;42.864;12.014;2023-06-01T13:20:43;97369.71;;;25.49;47.87
52653;BME280;39353;42.864;12.014;2023-06-01T13:23:11;97360.05;;;25.50;47.46
52653;BME280;39353;42.864;12.014;2023-06-01T13:25:39;97363.70;;;25.52;47.33
52653;BME280;39353;42.864;12.014;2023-06-01T13:28:08;97362.17;;;25.53;48.07
52653;BME280;39353;42.864;12.014;2023-06-01T13:30:47;97357.20;;;25.57;48.23
52653;BME280;39353;42.864;12.014;2023-06-01T13:33:15;97352.26;;;25.63;48.47
52653;BME280;39353;42.864;12.014;2023-06-01T13:35:44;97340.68;;;25.66;48.78
52653;BME280;39353;42.864;12.014;2023-06-01T13:38:12;97333.80;;;25.64;47.93
52653;BME280;39353;42.864;12.014;2023-06-01T13:40:40;97328.65;;;25.66;48.32
52653;BME280;39353;42.864;12.014;2023-06-01T13:43:08;97325.62;;;25.65;48.72
52653;BME280;39353;42.864;12.014;2023-06-01T13:45:35;97325.17;;;25.64;48.81
52653;BME280;39353;42.864;12.014;2023-06-01T13:48:09;97323.73;;;25.64;48.62
52653;BME280;39353;42.864;12.014;2023-06-01T13:50:37;97320.96;;;25.66;48.48
52653;BME280;39353;42.864;12.014;2023-06-01T13:53:05;97319.08;;;25.64;48.45
52653;BME280;39353;42.864;12.014;2023-06-01T13:55:33;97316.59;;;25.62;48.53